sensor_id;sensor_type;location;lat;lon;timestamp;P1;durP1;ratioP1;P2;durP2;ratioP2
38787;SDS011;24536;45.488;12.238;2023-02-27T00:01:29;0.85;;;0.40;;
38787;SDS011;24536;45.488;12.238;2023-02-27T00:03:57;0.30;;;0.30;;
38787;SDS011;24536;45.488;12.238;2023-02-27T00:06:22;1.00;;;0.40;;
38787;SDS011;24536;45.488;12.238;2023-02-27T00:08:48;0.40;;;0.40;;
38787;SDS011;24536;45.488;12.238;2023-02-27T00:11:14;0.55;;;0.50;;
38787;SDS011;24536;45.488;12.238;2023-02-27T00:13:40;2.17;;;0.40;;
38787;SDS011;24536;45.488;12.238;2023-02-27T00:16:05;0.30;;;0.30;;
38787;SDS011;24536;45.488;12.238;2023-02-27T00:18:33;0.30;;;0.30;;
38787;SDS011;24536;45.488;12.238;2023-02-27T00:20:59;1.70;;;0.30;;
38787;SDS011;24536;45.488;12.238;2023-02-27T00:23:24;0.45;;;0.40;;
38787;SDS011;24536;45.488;12.238;2023-02-27T00:25:51;0.82;;;0.47;;
38787;SDS011;24536;45.488;12.238;2023-02-27T00:28:18;0.60;;;0.50;;
38787;SDS011;24536;45.488;12.238;2023-02-27T00:30:44;0.43;;;0.30;;
38787;SDS011;24536;45.488;12.238;2023-02-27T00:33:10;0.68;;;0.47;;
38787;SDS011;24536;45.488;12.238;2023-02-27T00:35:35;0.50;;;0.40;;
38787;SDS011;24536;45.488;12.238;2023-02-27T00:38:01;0.47;;;0.40;;
38787;SDS011;24536;45.488;12.238;2023-02-27T00:40:27;0.22;;;0.22;;
38787;SDS011;24536;45.488;12.238;2023-02-27T00:42:53;0.57;;;0.30;;
38787;SDS011;24536;45.488;12.238;2023-02-27T00:45:18;0.30;;;0.30;;
38787;SDS011;24536;45.488;12.238;2023-02-27T00:47:47;1.30;;;0.30;;
38787;SDS011;24536;45.488;12.238;2023-02-27T00:50:13;0.28;;;0.22;;
38787;SDS011;24536;45.488;12.238;2023-02-27T00:52:39;0.55;;;0.40;;
38787;SDS011;24536;45.488;12.238;2023-02-27T00:55:05;0.55;;;0.20;;
38787;SDS011;24536;45.488;12.238;2023-02-27T00:57:31;0.20;;;0.20;;
38787;SDS011;24536;45.488;12.238;2023-02-27T00:59:57;0.32;;;0.30;;
38787;SDS011;24536;45.488;12.238;2023-02-27T01:02:23;0.32;;;0.30;;
38787;SDS011;24536;45.488;12.238;2023-02-27T01:04:49;0.38;;;0.30;;
38787;SDS011;24536;45.488;12.238;2023-02-27T01:07:14;0.47;;;0.40;;
38787;SDS011;24536;45.488;12.238;2023-02-27T01:09:40;0.20;;;0.20;;
38787;SDS011;24536;45.488;12.238;2023-02-27T01:12:06;1.83;;;0.32;;
38787;SDS011;24536;45.488;12.238;2023-02-27T01:14:32;0.45;;;0.35;;
38787;SDS011;24536;45.488;12.238;2023-02-27T01:16:59;0.30;;;0.20;;
38787;SDS011;24536;45.488;12.238;2023-02-27T01:19:25;0.50;;;0.40;;
38787;SDS011;24536;45.488;12.238;2023-02-27T01:21:51;0.73;;;0.30;;
38787;SDS011;24536;45.488;12.238;2023-02-27T01:24:16;0.68;;;0.30;;
38787;SDS011;24536;45.488;12.238;2023-02-27T01:26:43;0.82;;;0.20;;
38787;SDS011;24536;45.488;12.238;2023-02-27T01:29:11;0.20;;;0.20;;
38787;SDS011;24536;45.488;12.238;2023-02-27T01:31:37;0.40;;;0.30;;
38787;SDS011;24536;45.488;12.238;2023-02-27T01:34:03;0.50;;;0.47;;
38787;SDS011;24536;45.488;12.238;2023-02-27T01:36:29;0.68;;;0.20;;
38787;SDS011;24536;45.488;12.238;2023-02-27T01:38:54;0.28;;;0.20;;
38787;SDS011;24536;45.488;12.238;2023-02-27T01:41:20;0.82;;;0.40;;
38787;SDS011;24536;45.488;12.238;2023-02-27T01:43:52;0.30;;;0.30;;
38787;SDS011;24536;45.488;12.238;2023-02-27T01:46:21;0.30;;;0.30;;
38787;SDS011;24536;45.488;12.238;2023-02-27T01:48:47;0.30;;;0.20;;
38787;SDS011;24536;45.488;12.238;2023-02-27T01:51:13;0.52;;;0.40;;
38787;SDS011;24536;45.488;12.238;2023-02-27T01:53:43;1.15;;;0.25;;
38787;SDS011;24536;45.488;12.238;2023-02-27T01:56:17;0.30;;;0.30;;
38787;SDS011;24536;45.488;12.238;2023-02-27T01:58:48;0.20;;;0.20;;
38787;SDS011;24536;45.488;12.238;2023-02-27T02:01:15;0.40;;;0.30;;
38787;SDS011;24536;45.488;12.238;2023-02-27T02:06:27;0.40;;;0.40;;
38787;SDS011;24536;45.488;12.238;2023-02-27T02:08:55;1.10;;;0.50;;
38787;SDS011;24536;45.488;12.238;2023-02-27T02:11:23;0.55;;;0.20;;
38787;SDS011;24536;45.488;12.238;2023-02-27T02:13:52;0.75;;;0.40;;
38787;SDS011;24536;45.488;12.238;2023-02-27T02:16:34;0.40;;;0.40;;
38787;SDS011;24536;45.488;12.238;2023-02-27T02:32:44;1.75;;;0.30;;
38787;SDS011;24536;45.488;12.238;2023-02-27T02:38:32;0.60;;;0.43;;
38787;SDS011;24536;45.488;12.238;2023-02-27T02:44:14;2.15;;;0.30;;
38787;SDS011;24536;45.488;12.238;2023-02-27T02:47:15;0.43;;;0.30;;
38787;SDS011;24536;45.488;12.238;2023-02-27T02:52:26;1.38;;;0.60;;
38787;SDS011;24536;45.488;12.238;2023-02-27T02:57:56;0.50;;;0.40;;
38787;SDS011;24536;45.488;12.238;2023-02-27T03:00:26;1.67;;;0.55;;
38787;SDS011;24536;45.488;12.238;2023-02-27T03:02:59;2.17;;;0.40;;
38787;SDS011;24536;45.488;12.238;2023-02-27T03:05:36;0.85;;;0.32;;
38787;SDS011;24536;45.488;12.238;2023-02-27T03:08:07;0.65;;;0.40;;
38787;SDS011;24536;45.488;12.238;2023-02-27T03:10:43;1.05;;;0.60;;
38787;SDS011;24536;45.488;12.238;2023-02-27T03:13:23;1.05;;;0.40;;
38787;SDS011;24536;45.488;12.238;2023-02-27T03:16:06;0.43;;;0.32;;
38787;SDS011;24536;45.488;12.238;2023-02-27T03:18:42;1.42;;;0.38;;
38787;SDS011;24536;45.488;12.238;2023-02-27T03:21:36;0.20;;;0.20;;
38787;SDS011;24536;45.488;12.238;2023-02-27T03:24:09;0.68;;;0.40;;
38787;SDS011;24536;45.488;12.238;2023-02-27T03:26:41;0.98;;;0.40;;
38787;SDS011;24536;45.488;12.238;2023-02-27T03:29:10;0.82;;;0.50;;
38787;SDS011;24536;45.488;12.238;2023-02-27T03:31:45;0.40;;;0.35;;
38787;SDS011;24536;45.488;12.238;2023-02-27T03:34:21;0.77;;;0.77;;
38787;SDS011;24536;45.488;12.238;2023-02-27T03:37:05;0.50;;;0.30;;
38787;SDS011;24536;45.488;12.238;2023-02-27T03:47:35;0.40;;;0.40;;
38787;SDS011;24536;45.488;12.238;2023-02-27T03:50:00;0.85;;;0.40;;
38787;SDS011;24536;45.488;12.238;2023-02-27T03:52:26;0.40;;;0.30;;
38787;SDS011;24536;45.488;12.238;2023-02-27T03:57:32;0.50;;;0.50;;
38787;SDS011;24536;45.488;12.238;2023-02-27T03:59:59;2.50;;;0.60;;
38787;SDS011;24536;45.488;12.238;2023-02-27T04:02:25;1.40;;;0.40;;
38787;SDS011;24536;45.488;12.238;2023-02-27T04:07:47;1.83;;;0.40;;
38787;SDS011;24536;45.488;12.238;2023-02-27T04:16:59;0.30;;;0.30;;
38787;SDS011;24536;45.488;12.238;2023-02-27T04:23:01;1.00;;;0.50;;
38787;SDS011;24536;45.488;12.238;2023-02-27T04:44:12;4.30;;;0.45;;
38787;SDS011;24536;45.488;12.238;2023-02-27T04:46:42;0.40;;;0.40;;
38787;SDS011;24536;45.488;12.238;2023-02-27T04:49:17;0.45;;;0.45;;
38787;SDS011;24536;45.488;12.238;2023-02-27T04:54:39;1.38;;;0.60;;
38787;SDS011;24536;45.488;12.238;2023-02-27T04:57:22;0.52;;;0.50;;
38787;SDS011;24536;45.488;12.238;2023-02-27T04:59:53;0.60;;;0.40;;
38787;SDS011;24536;45.488;12.238;2023-02-27T05:02:32;1.00;;;0.50;;
38787;SDS011;24536;45.488;12.238;2023-02-27T05:05:05;1.17;;;0.75;;
38787;SDS011;24536;45.488;12.238;2023-02-27T05:07:40;0.32;;;0.30;;
38787;SDS011;24536;45.488;12.238;2023-02-27T05:10:32;0.38;;;0.38;;
38787;SDS011;24536;45.488;12.238;2023-02-27T05:13:16;0.30;;;0.30;;
38787;SDS011;24536;45.488;12.238;2023-02-27T05:15:55;0.45;;;0.32;;
38787;SDS011;24536;45.488;12.238;2023-02-27T05:18:26;0.25;;;0.20;;
38787;SDS011;24536;45.488;12.238;2023-02-27T05:26:21;1.23;;;0.60;;
38787;SDS011;24536;45.488;12.238;2023-02-27T05:29:15;0.75;;;0.40;;
38787;SDS011;24536;45.488;12.238;2023-02-27T05:36:44;1.15;;;0.60;;
38787;SDS011;24536;45.488;12.238;2023-02-27T05:39:18;0.50;;;0.50;;
38787;SDS011;24536;45.488;12.238;2023-02-27T05:41:55;0.73;;;0.68;;
38787;SDS011;24536;45.488;12.238;2023-02-27T05:44:30;1.35;;;0.50;;
38787;SDS011;24536;45.488;12.238;2023-02-27T05:47:00;0.65;;;0.45;;
38787;SDS011;24536;45.488;12.238;2023-02-27T05:49:33;1.02;;;0.52;;
38787;SDS011;24536;45.488;12.238;2023-02-27T05:52:23;0.60;;;0.43;;
38787;SDS011;24536;45.488;12.238;2023-02-27T05:54:52;1.02;;;0.55;;
38787;SDS011;24536;45.488;12.238;2023-02-27T05:57:34;0.82;;;0.57;;
38787;SDS011;24536;45.488;12.238;2023-02-27T06:00:35;1.10;;;0.38;;
38787;SDS011;24536;45.488;12.238;2023-02-27T06:03:07;0.57;;;0.50;;
38787;SDS011;24536;45.488;12.238;2023-02-27T06:05:33;0.85;;;0.50;;
38787;SDS011;24536;45.488;12.238;2023-02-27T06:08:00;2.25;;;0.60;;
38787;SDS011;24536;45.488;12.238;2023-02-27T06:10:26;1.05;;;0.50;;
38787;SDS011;24536;45.488;12.238;2023-02-27T06:12:52;0.82;;;0.50;;
38787;SDS011;24536;45.488;12.238;2023-02-27T06:15:17;0.43;;;0.40;;
38787;SDS011;24536;45.488;12.238;2023-02-27T06:17:47;2.35;;;0.70;;
38787;SDS011;24536;45.488;12.238;2023-02-27T06:20:13;0.50;;;0.50;;
38787;SDS011;24536;45.488;12.238;2023-02-27T06:22:38;0.70;;;0.50;;
38787;SDS011;24536;45.488;12.238;2023-02-27T06:25:04;3.25;;;0.80;;
38787;SDS011;24536;45.488;12.238;2023-02-27T06:27:30;1.27;;;0.70;;
38787;SDS011;24536;45.488;12.238;2023-02-27T06:29:56;0.85;;;0.52;;
38787;SDS011;24536;45.488;12.238;2023-02-27T06:32:22;2.42;;;0.77;;
38787;SDS011;24536;45.488;12.238;2023-02-27T06:34:49;0.75;;;0.57;;
38787;SDS011;24536;45.488;12.238;2023-02-27T06:37:25;1.45;;;0.65;;
38787;SDS011;24536;45.488;12.238;2023-02-27T06:39:51;1.20;;;0.80;;
38787;SDS011;24536;45.488;12.238;2023-02-27T06:42:17;0.80;;;0.50;;
38787;SDS011;24536;45.488;12.238;2023-02-27T06:44:43;1.92;;;1.02;;
38787;SDS011;24536;45.488;12.238;2023-02-27T06:47:09;0.80;;;0.70;;
38787;SDS011;24536;45.488;12.238;2023-02-27T06:49:34;1.23;;;0.65;;
38787;SDS011;24536;45.488;12.238;2023-02-27T06:52:00;1.08;;;0.50;;
38787;SDS011;24536;45.488;12.238;2023-02-27T06:54:26;0.50;;;0.50;;
38787;SDS011;24536;45.488;12.238;2023-02-27T06:56:51;2.47;;;0.80;;
38787;SDS011;24536;45.488;12.238;2023-02-27T06:59:17;4.05;;;0.52;;
38787;SDS011;24536;45.488;12.238;2023-02-27T07:01:43;1.02;;;0.50;;
38787;SDS011;24536;45.488;12.238;2023-02-27T07:04:12;0.73;;;0.60;;
38787;SDS011;24536;45.488;12.238;2023-02-27T07:06:39;2.42;;;0.70;;
38787;SDS011;24536;45.488;12.238;2023-02-27T07:09:05;1.23;;;0.85;;
38787;SDS011;24536;45.488;12.238;2023-02-27T07:11:31;3.40;;;0.70;;
38787;SDS011;24536;45.488;12.238;2023-02-27T07:13:56;1.00;;;0.80;;
38787;SDS011;24536;45.488;12.238;2023-02-27T07:16:22;1.88;;;0.60;;
38787;SDS011;24536;45.488;12.238;2023-02-27T07:18:48;1.33;;;0.60;;
38787;SDS011;24536;45.488;12.238;2023-02-27T07:21:13;0.63;;;0.60;;
38787;SDS011;24536;45.488;12.238;2023-02-27T07:23:40;1.38;;;0.77;;
38787;SDS011;24536;45.488;12.238;2023-02-27T07:26:06;1.23;;;0.90;;
38787;SDS011;24536;45.488;12.238;2023-02-27T07:28:31;0.82;;;0.63;;
38787;SDS011;24536;45.488;12.238;2023-02-27T07:30:57;2.05;;;0.77;;
38787;SDS011;24536;45.488;12.238;2023-02-27T07:33:23;1.90;;;0.70;;
38787;SDS011;24536;45.488;12.238;2023-02-27T07:35:49;0.65;;;0.50;;
38787;SDS011;24536;45.488;12.238;2023-02-27T07:38:15;0.70;;;0.50;;
38787;SDS011;24536;45.488;12.238;2023-02-27T07:40:43;1.65;;;0.80;;
38787;SDS011;24536;45.488;12.238;2023-02-27T07:43:11;0.60;;;0.60;;
38787;SDS011;24536;45.488;12.238;2023-02-27T07:45:37;1.23;;;0.63;;
38787;SDS011;24536;45.488;12.238;2023-02-27T07:48:03;1.48;;;0.70;;
38787;SDS011;24536;45.488;12.238;2023-02-27T07:50:29;1.08;;;0.70;;
38787;SDS011;24536;45.488;12.238;2023-02-27T07:52:55;2.03;;;0.70;;
38787;SDS011;24536;45.488;12.238;2023-02-27T07:55:20;3.15;;;0.63;;
38787;SDS011;24536;45.488;12.238;2023-02-27T07:57:46;1.05;;;0.80;;
38787;SDS011;24536;45.488;12.238;2023-02-27T08:00:12;0.85;;;0.55;;
38787;SDS011;24536;45.488;12.238;2023-02-27T08:02:38;2.70;;;0.85;;
38787;SDS011;24536;45.488;12.238;2023-02-27T08:05:04;4.10;;;0.63;;
38787;SDS011;24536;45.488;12.238;2023-02-27T08:07:30;8.93;;;0.90;;
38787;SDS011;24536;45.488;12.238;2023-02-27T08:09:56;1.00;;;0.60;;
38787;SDS011;24536;45.488;12.238;2023-02-27T08:12:22;1.73;;;0.88;;
38787;SDS011;24536;45.488;12.238;2023-02-27T08:14:47;1.13;;;0.80;;
38787;SDS011;24536;45.488;12.238;2023-02-27T08:17:13;2.88;;;0.60;;
38787;SDS011;24536;45.488;12.238;2023-02-27T08:19:39;0.68;;;0.68;;
38787;SDS011;24536;45.488;12.238;2023-02-27T08:22:05;0.93;;;0.70;;
38787;SDS011;24536;45.488;12.238;2023-02-27T08:24:31;1.17;;;0.60;;
38787;SDS011;24536;45.488;12.238;2023-02-27T08:26:56;2.25;;;0.70;;
38787;SDS011;24536;45.488;12.238;2023-02-27T08:29:22;1.30;;;0.75;;
38787;SDS011;24536;45.488;12.238;2023-02-27T08:31:48;2.55;;;1.08;;
38787;SDS011;24536;45.488;12.238;2023-02-27T08:34:14;1.73;;;1.10;;
38787;SDS011;24536;45.488;12.238;2023-02-27T08:36:40;2.28;;;0.90;;
38787;SDS011;24536;45.488;12.238;2023-02-27T08:39:06;1.55;;;0.80;;
38787;SDS011;24536;45.488;12.238;2023-02-27T08:41:33;1.60;;;1.23;;
38787;SDS011;24536;45.488;12.238;2023-02-27T08:43:59;1.50;;;0.98;;
38787;SDS011;24536;45.488;12.238;2023-02-27T08:46:25;1.38;;;0.93;;
38787;SDS011;24536;45.488;12.238;2023-02-27T08:48:50;2.13;;;1.00;;
38787;SDS011;24536;45.488;12.238;2023-02-27T08:51:16;1.70;;;1.00;;
38787;SDS011;24536;45.488;12.238;2023-02-27T08:53:42;2.45;;;0.82;;
38787;SDS011;24536;45.488;12.238;2023-02-27T08:56:07;0.88;;;0.63;;
38787;SDS011;24536;45.488;12.238;2023-02-27T08:58:33;0.70;;;0.50;;
38787;SDS011;24536;45.488;12.238;2023-02-27T09:01:00;1.23;;;0.70;;
38787;SDS011;24536;45.488;12.238;2023-02-27T09:03:26;4.78;;;0.80;;
38787;SDS011;24536;45.488;12.238;2023-02-27T09:05:52;1.13;;;0.80;;
38787;SDS011;24536;45.488;12.238;2023-02-27T09:08:19;2.55;;;0.90;;
38787;SDS011;24536;45.488;12.238;2023-02-27T09:10:46;2.30;;;0.80;;
38787;SDS011;24536;45.488;12.238;2023-02-27T09:13:12;1.92;;;1.20;;
38787;SDS011;24536;45.488;12.238;2023-02-27T09:15:37;2.30;;;1.17;;
38787;SDS011;24536;45.488;12.238;2023-02-27T09:18:04;1.13;;;0.90;;
38787;SDS011;24536;45.488;12.238;2023-02-27T09:20:33;1.23;;;0.80;;
38787;SDS011;24536;45.488;12.238;2023-02-27T09:23:00;0.95;;;0.65;;
38787;SDS011;24536;45.488;12.238;2023-02-27T09:25:27;3.70;;;1.05;;
38787;SDS011;24536;45.488;12.238;2023-02-27T09:27:53;1.60;;;0.73;;
38787;SDS011;24536;45.488;12.238;2023-02-27T09:30:19;4.70;;;1.02;;
38787;SDS011;24536;45.488;12.238;2023-02-27T09:32:45;4.60;;;0.90;;
38787;SDS011;24536;45.488;12.238;2023-02-27T09:35:11;4.47;;;0.90;;
38787;SDS011;24536;45.488;12.238;2023-02-27T09:37:39;1.50;;;0.80;;
38787;SDS011;24536;45.488;12.238;2023-02-27T09:40:06;1.27;;;0.85;;
38787;SDS011;24536;45.488;12.238;2023-02-27T09:42:36;1.85;;;0.90;;
38787;SDS011;24536;45.488;12.238;2023-02-27T09:45:12;3.72;;;0.93;;
38787;SDS011;24536;45.488;12.238;2023-02-27T09:48:02;1.73;;;1.00;;
38787;SDS011;24536;45.488;12.238;2023-02-27T09:53:15;4.20;;;0.98;;
38787;SDS011;24536;45.488;12.238;2023-02-27T09:56:22;1.10;;;0.88;;
38787;SDS011;24536;45.488;12.238;2023-02-27T10:01:20;1.67;;;1.00;;
38787;SDS011;24536;45.488;12.238;2023-02-27T10:09:30;3.33;;;0.90;;
38787;SDS011;24536;45.488;12.238;2023-02-27T10:15:01;2.42;;;1.17;;
38787;SDS011;24536;45.488;12.238;2023-02-27T10:17:34;2.05;;;1.08;;
38787;SDS011;24536;45.488;12.238;2023-02-27T10:20:06;4.78;;;0.98;;
38787;SDS011;24536;45.488;12.238;2023-02-27T10:22:54;7.57;;;1.38;;
38787;SDS011;24536;45.488;12.238;2023-02-27T10:25:24;6.63;;;0.98;;
38787;SDS011;24536;45.488;12.238;2023-02-27T10:27:52;2.75;;;1.05;;
38787;SDS011;24536;45.488;12.238;2023-02-27T10:32:47;5.40;;;1.20;;
38787;SDS011;24536;45.488;12.238;2023-02-27T10:35:25;2.00;;;1.00;;
38787;SDS011;24536;45.488;12.238;2023-02-27T10:38:00;1.80;;;1.17;;
38787;SDS011;24536;45.488;12.238;2023-02-27T10:40:29;1.90;;;1.00;;
38787;SDS011;24536;45.488;12.238;2023-02-27T10:42:59;1.73;;;1.13;;
38787;SDS011;24536;45.488;12.238;2023-02-27T10:45:26;1.50;;;1.30;;
38787;SDS011;24536;45.488;12.238;2023-02-27T10:47:52;2.15;;;1.25;;
38787;SDS011;24536;45.488;12.238;2023-02-27T10:50:51;8.27;;;1.13;;
38787;SDS011;24536;45.488;12.238;2023-02-27T10:53:19;2.17;;;1.15;;
38787;SDS011;24536;45.488;12.238;2023-02-27T10:55:58;1.42;;;0.90;;
38787;SDS011;24536;45.488;12.238;2023-02-27T10:58:30;1.75;;;1.08;;
38787;SDS011;24536;45.488;12.238;2023-02-27T11:01:08;3.75;;;1.20;;
38787;SDS011;24536;45.488;12.238;2023-02-27T11:03:39;2.30;;;1.02;;
38787;SDS011;24536;45.488;12.238;2023-02-27T11:06:20;1.73;;;1.20;;
38787;SDS011;24536;45.488;12.238;2023-02-27T11:11:42;2.40;;;1.30;;
38787;SDS011;24536;45.488;12.238;2023-02-27T11:14:46;2.90;;;1.10;;
38787;SDS011;24536;45.488;12.238;2023-02-27T11:17:11;2.30;;;1.40;;
38787;SDS011;24536;45.488;12.238;2023-02-27T11:19:57;3.88;;;1.23;;
38787;SDS011;24536;45.488;12.238;2023-02-27T11:22:25;2.58;;;1.20;;
38787;SDS011;24536;45.488;12.238;2023-02-27T11:27:45;1.80;;;1.17;;
38787;SDS011;24536;45.488;12.238;2023-02-27T11:30:22;1.77;;;1.25;;
38787;SDS011;24536;45.488;12.238;2023-02-27T11:32:54;1.58;;;1.13;;
38787;SDS011;24536;45.488;12.238;2023-02-27T11:35:25;2.53;;;1.40;;
38787;SDS011;24536;45.488;12.238;2023-02-27T11:38:00;1.35;;;1.15;;
38787;SDS011;24536;45.488;12.238;2023-02-27T11:40:32;1.65;;;1.10;;
38787;SDS011;24536;45.488;12.238;2023-02-27T11:43:04;2.17;;;1.60;;
38787;SDS011;24536;45.488;12.238;2023-02-27T11:45:40;2.67;;;1.40;;
38787;SDS011;24536;45.488;12.238;2023-02-27T11:48:18;1.55;;;1.25;;
38787;SDS011;24536;45.488;12.238;2023-02-27T11:57:17;2.13;;;1.30;;
38787;SDS011;24536;45.488;12.238;2023-02-27T11:59:36;2.60;;;1.20;;
38787;SDS011;24536;45.488;12.238;2023-02-27T12:05:23;2.30;;;1.52;;
38787;SDS011;24536;45.488;12.238;2023-02-27T12:17:07;1.83;;;1.30;;
38787;SDS011;24536;45.488;12.238;2023-02-27T12:19:43;3.40;;;1.70;;
38787;SDS011;24536;45.488;12.238;2023-02-27T12:22:33;2.25;;;1.40;;
38787;SDS011;24536;45.488;12.238;2023-02-27T12:25:06;2.67;;;1.40;;
38787;SDS011;24536;45.488;12.238;2023-02-27T12:27:55;2.13;;;1.60;;
38787;SDS011;24536;45.488;12.238;2023-02-27T12:30:33;2.20;;;1.55;;
38787;SDS011;24536;45.488;12.238;2023-02-27T12:35:42;2.65;;;1.60;;
38787;SDS011;24536;45.488;12.238;2023-02-27T12:38:12;2.47;;;1.70;;
38787;SDS011;24536;45.488;12.238;2023-02-27T12:40:53;6.32;;;1.40;;
38787;SDS011;24536;45.488;12.238;2023-02-27T12:43:55;3.35;;;1.75;;
38787;SDS011;24536;45.488;12.238;2023-02-27T12:49:21;2.28;;;1.30;;
38787;SDS011;24536;45.488;12.238;2023-02-27T13:00:28;2.97;;;1.70;;
38787;SDS011;24536;45.488;12.238;2023-02-27T13:03:10;3.08;;;1.80;;
38787;SDS011;24536;45.488;12.238;2023-02-27T13:05:44;4.97;;;2.72;;
38787;SDS011;24536;45.488;12.238;2023-02-27T13:13:35;4.18;;;1.83;;
38787;SDS011;24536;45.488;12.238;2023-02-27T13:16:12;5.32;;;1.80;;
38787;SDS011;24536;45.488;12.238;2023-02-27T13:21:12;4.50;;;1.77;;
38787;SDS011;24536;45.488;12.238;2023-02-27T13:24:22;3.03;;;1.80;;
38787;SDS011;24536;45.488;12.238;2023-02-27T13:29:38;4.68;;;1.70;;
38787;SDS011;24536;45.488;12.238;2023-02-27T13:32:21;3.42;;;1.88;;
38787;SDS011;24536;45.488;12.238;2023-02-27T13:35:06;4.13;;;1.80;;
38787;SDS011;24536;45.488;12.238;2023-02-27T13:37:47;5.13;;;1.83;;
38787;SDS011;24536;45.488;12.238;2023-02-27T13:51:00;3.42;;;1.90;;
38787;SDS011;24536;45.488;12.238;2023-02-27T13:53:27;4.85;;;2.53;;
38787;SDS011;24536;45.488;12.238;2023-02-27T13:56:36;6.28;;;2.47;;
38787;SDS011;24536;45.488;12.238;2023-02-27T13:58:47;5.35;;;2.28;;
38787;SDS011;24536;45.488;12.238;2023-02-27T14:01:15;4.68;;;1.92;;
38787;SDS011;24536;45.488;12.238;2023-02-27T14:03:51;4.22;;;1.80;;
38787;SDS011;24536;45.488;12.238;2023-02-27T14:06:23;6.05;;;2.20;;
38787;SDS011;24536;45.488;12.238;2023-02-27T14:08:51;2.55;;;1.73;;
38787;SDS011;24536;45.488;12.238;2023-02-27T14:11:23;4.85;;;2.17;;
38787;SDS011;24536;45.488;12.238;2023-02-27T14:21:59;8.57;;;2.55;;
38787;SDS011;24536;45.488;12.238;2023-02-27T14:24:38;4.65;;;2.30;;
38787;SDS011;24536;45.488;12.238;2023-02-27T14:27:19;8.15;;;2.05;;
38787;SDS011;24536;45.488;12.238;2023-02-27T14:29:50;5.07;;;1.55;;
38787;SDS011;24536;45.488;12.238;2023-02-27T14:32:22;5.85;;;2.17;;
38787;SDS011;24536;45.488;12.238;2023-02-27T14:34:57;8.55;;;2.30;;
38787;SDS011;24536;45.488;12.238;2023-02-27T14:37:24;4.65;;;2.53;;
38787;SDS011;24536;45.488;12.238;2023-02-27T14:39:52;3.45;;;1.80;;
38787;SDS011;24536;45.488;12.238;2023-02-27T14:44:50;6.18;;;2.58;;
38787;SDS011;24536;45.488;12.238;2023-02-27T14:47:18;3.47;;;2.08;;
38787;SDS011;24536;45.488;12.238;2023-02-27T14:49:49;4.55;;;2.35;;
38787;SDS011;24536;45.488;12.238;2023-02-27T14:52:25;4.47;;;2.30;;
38787;SDS011;24536;45.488;12.238;2023-02-27T14:55:13;4.60;;;2.50;;
38787;SDS011;24536;45.488;12.238;2023-02-27T14:57:50;6.22;;;2.22;;
38787;SDS011;24536;45.488;12.238;2023-02-27T15:01:04;3.30;;;2.08;;
38787;SDS011;24536;45.488;12.238;2023-02-27T15:03:39;5.57;;;2.38;;
38787;SDS011;24536;45.488;12.238;2023-02-27T15:08:58;8.18;;;2.45;;
38787;SDS011;24536;45.488;12.238;2023-02-27T15:11:24;7.43;;;2.63;;
38787;SDS011;24536;45.488;12.238;2023-02-27T15:13:54;3.83;;;2.30;;
38787;SDS011;24536;45.488;12.238;2023-02-27T15:16:39;4.82;;;2.22;;
38787;SDS011;24536;45.488;12.238;2023-02-27T15:19:16;7.68;;;2.25;;
38787;SDS011;24536;45.488;12.238;2023-02-27T15:21:53;7.57;;;2.75;;
38787;SDS011;24536;45.488;12.238;2023-02-27T15:24:39;5.30;;;2.03;;
38787;SDS011;24536;45.488;12.238;2023-02-27T15:41:44;4.72;;;2.67;;
38787;SDS011;24536;45.488;12.238;2023-02-27T15:44:15;5.97;;;3.00;;
38787;SDS011;24536;45.488;12.238;2023-02-27T15:46:43;7.03;;;2.33;;
38787;SDS011;24536;45.488;12.238;2023-02-27T15:49:14;5.30;;;2.90;;
38787;SDS011;24536;45.488;12.238;2023-02-27T15:51:45;4.53;;;2.13;;
38787;SDS011;24536;45.488;12.238;2023-02-27T15:54:12;5.47;;;2.30;;
38787;SDS011;24536;45.488;12.238;2023-02-27T15:56:39;4.05;;;2.70;;
38787;SDS011;24536;45.488;12.238;2023-02-27T15:59:05;6.10;;;2.70;;
38787;SDS011;24536;45.488;12.238;2023-02-27T16:01:31;5.97;;;2.33;;
38787;SDS011;24536;45.488;12.238;2023-02-27T16:03:59;3.78;;;2.13;;
38787;SDS011;24536;45.488;12.238;2023-02-27T16:08:57;6.10;;;2.10;;
38787;SDS011;24536;45.488;12.238;2023-02-27T16:11:24;3.95;;;2.53;;
38787;SDS011;24536;45.488;12.238;2023-02-27T16:13:52;3.95;;;2.13;;
38787;SDS011;24536;45.488;12.238;2023-02-27T16:18:56;2.65;;;2.00;;
38787;SDS011;24536;45.488;12.238;2023-02-27T16:21:24;5.30;;;2.40;;
38787;SDS011;24536;45.488;12.238;2023-02-27T16:23:51;4.95;;;2.67;;
38787;SDS011;24536;45.488;12.238;2023-02-27T16:29:21;6.60;;;2.83;;
38787;SDS011;24536;45.488;12.238;2023-02-27T16:31:56;5.60;;;2.22;;
38787;SDS011;24536;45.488;12.238;2023-02-27T16:34:23;3.92;;;2.05;;
38787;SDS011;24536;45.488;12.238;2023-02-27T16:39:28;6.30;;;2.03;;
38787;SDS011;24536;45.488;12.238;2023-02-27T16:41:58;5.10;;;2.60;;
38787;SDS011;24536;45.488;12.238;2023-02-27T16:44:25;6.35;;;2.38;;
38787;SDS011;24536;45.488;12.238;2023-02-27T16:46:52;7.03;;;2.65;;
38787;SDS011;24536;45.488;12.238;2023-02-27T16:49:26;8.50;;;2.80;;
38787;SDS011;24536;45.488;12.238;2023-02-27T16:51:53;5.90;;;2.30;;
38787;SDS011;24536;45.488;12.238;2023-02-27T16:54:19;8.05;;;3.28;;
38787;SDS011;24536;45.488;12.238;2023-02-27T16:56:45;5.40;;;2.55;;
38787;SDS011;24536;45.488;12.238;2023-02-27T17:01:58;7.07;;;3.33;;
38787;SDS011;24536;45.488;12.238;2023-02-27T17:04:25;4.82;;;2.50;;
38787;SDS011;24536;45.488;12.238;2023-02-27T17:06:52;5.35;;;2.60;;
38787;SDS011;24536;45.488;12.238;2023-02-27T17:09:20;7.95;;;2.55;;
38787;SDS011;24536;45.488;12.238;2023-02-27T17:11:45;5.95;;;2.85;;
38787;SDS011;24536;45.488;12.238;2023-02-27T17:14:11;4.13;;;2.70;;
38787;SDS011;24536;45.488;12.238;2023-02-27T17:16:37;9.15;;;3.55;;
38787;SDS011;24536;45.488;12.238;2023-02-27T17:19:03;5.15;;;2.75;;
38787;SDS011;24536;45.488;12.238;2023-02-27T17:21:28;3.85;;;2.40;;
38787;SDS011;24536;45.488;12.238;2023-02-27T17:23:54;4.70;;;2.63;;
38787;SDS011;24536;45.488;12.238;2023-02-27T17:26:20;6.40;;;3.15;;
38787;SDS011;24536;45.488;12.238;2023-02-27T17:28:46;5.65;;;3.45;;
38787;SDS011;24536;45.488;12.238;2023-02-27T17:31:13;5.70;;;3.17;;
38787;SDS011;24536;45.488;12.238;2023-02-27T17:33:40;5.53;;;2.70;;
38787;SDS011;24536;45.488;12.238;2023-02-27T17:36:07;8.20;;;3.22;;
38787;SDS011;24536;45.488;12.238;2023-02-27T17:38:33;6.50;;;3.10;;
38787;SDS011;24536;45.488;12.238;2023-02-27T17:41:10;7.15;;;3.30;;
38787;SDS011;24536;45.488;12.238;2023-02-27T17:43:37;7.55;;;2.65;;
38787;SDS011;24536;45.488;12.238;2023-02-27T17:46:06;5.57;;;2.65;;
38787;SDS011;24536;45.488;12.238;2023-02-27T17:48:33;9.13;;;3.55;;
38787;SDS011;24536;45.488;12.238;2023-02-27T17:51:03;4.53;;;2.78;;
38787;SDS011;24536;45.488;12.238;2023-02-27T17:53:31;8.98;;;3.63;;
38787;SDS011;24536;45.488;12.238;2023-02-27T17:55:57;7.70;;;2.85;;
38787;SDS011;24536;45.488;12.238;2023-02-27T17:58:23;7.05;;;2.70;;
38787;SDS011;24536;45.488;12.238;2023-02-27T18:00:49;6.85;;;3.05;;
38787;SDS011;24536;45.488;12.238;2023-02-27T18:03:14;10.00;;;3.55;;
38787;SDS011;24536;45.488;12.238;2023-02-27T18:05:46;8.98;;;3.90;;
38787;SDS011;24536;45.488;12.238;2023-02-27T18:08:16;7.57;;;2.90;;
38787;SDS011;24536;45.488;12.238;2023-02-27T18:10:45;8.57;;;3.03;;
38787;SDS011;24536;45.488;12.238;2023-02-27T18:13:12;7.22;;;3.28;;
38787;SDS011;24536;45.488;12.238;2023-02-27T18:15:38;8.70;;;3.42;;